Portada
METAR-TAF:

METAR-TAF

Aeroports :

Harbin, Xina

latitud: 45-45N, longitud: 126-46E, altitud: 143 m

Observació

L'informe es va fer fa 27 minuts, a les 00:00 UTC
Vent 6 kt del Oest, variant entre Sud/Sud-Oest i Oest/Nord-Oest
Temperatura 10°C
Humitat 100%
Pressió 1023 hPa
Visibilitat: 7000 m
Núvols disperses a una alçada de 300 ft
Núvols disperses a una alçada de 400 ft

METAR: ZYHB 210000Z 26003MPS 210V290 7000 SCT003 SCT004 10/10 Q1023 NOSIG

Hora: 08:27 (00:27 UTC)

Pronòstic

L'informe es va fer fa 5 hores i 11 minuts, a les 19:16 UTC
Pronòstic vàlid del 21 a les 00 UTC al 21 a les 24 UTC
Vent 8 kt del Oest/Nord-Oest
Visibilitat: 4000 m
Núvols disperses a una alçada de 3000 ft
boirina
Temporalment
l' 21 a les 00 UTC al 21 a les 02 UTC
Visibilitat: 1000 m

TAF: ZYHB 201916Z 2100/2124 30004MPS 4000 BR SCT030 TX17/2106Z TN04/2121Z TEMPO 2100/2102 1000

Observacions i pronòstics meteorològics de més de 4000 aeroports (METAR i TAF).

Les estacions disponibles són els punts grocs i vermells al mapa.

Posi el ratolí al punt desitjat per veure el nom de l'estació.

Feu clic per veure les observacions i els pronòstics meteorològics.

Per canviar el mapa: feu clic els botons verds amb una creu de color negre per apropar; al botó verd amb un guió per allunyar la imatge; o en les fletxes verdes per a mapes adjacents.


METAR-TAF: